createdAt,value
2023-04-18T00:00:17.807Z,7.20
2023-04-18T00:03:06.731Z,7.17
2023-04-18T00:05:36.966Z,7.17
2023-04-18T00:08:05.782Z,7.16
2023-04-18T00:10:34.650Z,7.17
2023-04-18T00:13:04.277Z,7.16
2023-04-18T00:15:34.763Z,7.11
2023-04-18T00:18:03.938Z,7.09
2023-04-18T00:20:33.173Z,7.07
2023-04-18T00:23:01.968Z,7.07
2023-04-18T00:25:30.801Z,7.06
2023-04-18T00:27:59.431Z,7.06
2023-04-18T00:30:28.484Z,7.04
2023-04-18T00:32:58.222Z,7.04
2023-04-18T00:35:27.051Z,7.01
2023-04-18T00:37:56.233Z,6.97
2023-04-18T00:40:25.783Z,6.98
2023-04-18T00:42:54.495Z,6.96
2023-04-18T00:45:23.266Z,6.91
2023-04-18T00:47:52.213Z,6.85
2023-04-18T00:50:21.120Z,6.74
2023-04-18T00:52:50.078Z,6.72
2023-04-18T00:55:19.245Z,6.64
2023-04-18T00:57:47.931Z,6.66
2023-04-18T01:00:17.229Z,6.67
2023-04-18T01:02:47.348Z,6.66
2023-04-18T01:05:16.692Z,6.64
2023-04-18T01:07:45.726Z,6.62
2023-04-18T01:10:14.819Z,6.63
2023-04-18T01:12:43.582Z,6.60
2023-04-18T01:15:12.433Z,6.62
2023-04-18T01:17:41.342Z,6.59
2023-04-18T01:20:10.883Z,6.57
2023-04-18T01:22:41.655Z,6.56
2023-04-18T01:25:10.914Z,6.52
2023-04-18T01:27:39.622Z,6.47
2023-04-18T01:30:09.528Z,6.42
2023-04-18T01:32:38.326Z,6.38
2023-04-18T01:35:07.885Z,6.36
2023-04-18T01:37:36.654Z,6.29
2023-04-18T01:40:06.233Z,6.23
2023-04-18T01:42:34.990Z,6.19
2023-04-18T01:45:06.301Z,6.12
2023-04-18T01:47:35.388Z,6.06
2023-04-18T01:50:04.640Z,6.07
2023-04-18T01:52:33.477Z,6.04
2023-04-18T01:55:06.305Z,6.06
2023-04-18T01:57:36.884Z,6.01
2023-04-18T02:00:07.128Z,6.04
2023-04-18T02:02:44.869Z,6.07
2023-04-18T02:05:13.811Z,6.05
2023-04-18T02:07:43.073Z,5.99
2023-04-18T02:10:12.217Z,6.01
2023-04-18T02:12:40.930Z,6.01
2023-04-18T02:15:10.946Z,6.02
2023-04-18T02:17:39.850Z,6.03
2023-04-18T02:20:09.650Z,6.04
2023-04-18T02:22:39.720Z,6.08
2023-04-18T02:25:09.216Z,6.09
2023-04-18T02:27:37.797Z,6.12
2023-04-18T02:30:07.880Z,6.15
2023-04-18T02:32:36.878Z,6.15
2023-04-18T02:35:06.015Z,6.17
2023-04-18T02:37:34.759Z,6.14
2023-04-18T02:40:05.137Z,6.13
2023-04-18T02:42:33.986Z,6.16
2023-04-18T02:45:03.387Z,6.14
2023-04-18T02:47:40.456Z,6.15
2023-04-18T02:50:18.650Z,6.18
2023-04-18T02:52:47.469Z,6.18
2023-04-18T02:55:18.583Z,6.16
2023-04-18T02:57:47.928Z,6.18
2023-04-18T03:01:00.347Z,6.15
2023-04-18T03:04:27.940Z,6.10
2023-04-18T03:07:01.924Z,6.04
2023-04-18T03:09:33.258Z,6.06
2023-04-18T03:12:06.332Z,6.05
2023-04-18T03:14:36.232Z,6.06
2023-04-18T03:17:05.332Z,6.05
2023-04-18T03:19:38.716Z,6.06
2023-04-18T03:22:14.326Z,5.99
2023-04-18T03:24:48.693Z,5.85
2023-04-18T03:27:19.151Z,5.75
2023-04-18T03:29:49.030Z,5.79
2023-04-18T03:32:18.710Z,5.74
2023-04-18T03:34:47.537Z,5.77
2023-04-18T03:37:16.385Z,5.80
2023-04-18T03:39:48.509Z,5.71
2023-04-18T03:42:17.416Z,5.77
2023-04-18T03:44:46.347Z,5.80
2023-04-18T03:47:15.483Z,5.78
2023-04-18T03:49:46.655Z,5.78
2023-04-18T03:52:16.390Z,5.80
2023-04-18T03:54:45.150Z,5.81
2023-04-18T03:57:14.424Z,5.82
2023-04-18T03:59:46.090Z,5.89
2023-04-18T04:02:16.572Z,5.98
2023-04-18T04:04:45.660Z,6.01
2023-04-18T04:07:15.012Z,6.00
2023-04-18T04:09:44.013Z,5.96
2023-04-18T04:12:12.959Z,6.01
2023-04-18T04:14:41.734Z,6.04
2023-04-18T04:17:11.024Z,6.11
2023-04-18T04:19:40.918Z,6.14
2023-04-18T04:22:12.588Z,6.23
2023-04-18T04:24:42.272Z,6.23
2023-04-18T04:27:13.755Z,6.23
2023-04-18T04:29:43.964Z,6.30
2023-04-18T04:32:15.201Z,6.18
2023-04-18T04:34:44.152Z,6.20
2023-04-18T04:37:18.903Z,6.28
2023-04-18T04:40:09.545Z,6.30
2023-04-18T04:42:49.367Z,6.35
2023-04-18T04:45:24.317Z,6.37
2023-04-18T04:47:53.986Z,6.45
2023-04-18T04:50:23.160Z,6.51
2023-04-18T04:52:51.877Z,6.57
2023-04-18T04:55:21.193Z,6.69
2023-04-18T04:57:50.170Z,6.78
2023-04-18T05:01:03.241Z,6.89
2023-04-18T05:03:34.099Z,6.99
2023-04-18T05:06:03.758Z,7.05
2023-04-18T05:08:34.692Z,7.14
2023-04-18T05:11:05.081Z,7.24
2023-04-18T05:13:34.053Z,7.32
2023-04-18T05:16:02.964Z,7.39
2023-04-18T05:18:34.367Z,7.36
2023-04-18T05:21:03.920Z,7.38
2023-04-18T05:23:37.417Z,7.39
2023-04-18T05:26:06.891Z,7.42
2023-04-18T05:28:35.550Z,7.52
2023-04-18T05:31:04.407Z,7.50
2023-04-18T05:33:33.305Z,7.57
2023-04-18T05:36:02.164Z,7.57
2023-04-18T05:38:31.059Z,7.66
2023-04-18T05:41:00.506Z,7.56
2023-04-18T05:43:29.304Z,7.64
2023-04-18T05:45:58.217Z,7.69
2023-04-18T05:48:27.329Z,7.75
2023-04-18T05:50:56.088Z,7.82
2023-04-18T05:53:24.952Z,7.93
2023-04-18T05:55:53.709Z,8.00
2023-04-18T05:58:22.472Z,8.08
2023-04-18T06:00:52.980Z,8.17
2023-04-18T06:03:21.815Z,8.23
2023-04-18T06:05:50.842Z,8.27
2023-04-18T06:08:19.713Z,8.31
2023-04-18T06:10:48.284Z,8.40
2023-04-18T06:13:17.018Z,8.44
2023-04-18T06:15:45.788Z,8.60
2023-04-18T06:18:14.511Z,8.62
2023-04-18T06:20:44.532Z,8.70
2023-04-18T06:23:13.241Z,8.79
2023-04-18T06:25:43.207Z,8.93
2023-04-18T06:28:11.863Z,9.01
2023-04-18T06:30:40.532Z,9.10
2023-04-18T06:33:12.546Z,9.21
2023-04-18T06:35:41.865Z,9.37
2023-04-18T06:38:12.224Z,9.48
2023-04-18T06:40:40.973Z,9.57
2023-04-18T06:43:09.752Z,9.73
2023-04-18T06:45:39.113Z,9.72
2023-04-18T06:48:09.322Z,9.73
2023-04-18T06:50:38.200Z,9.75
2023-04-18T06:53:07.136Z,9.82
2023-04-18T06:55:36.318Z,9.84
2023-04-18T06:58:05.959Z,9.94
2023-04-18T07:00:34.896Z,10.07
2023-04-18T07:03:11.293Z,10.10
2023-04-18T07:05:40.870Z,10.11
2023-04-18T07:08:09.784Z,10.17
2023-04-18T07:10:38.372Z,10.21
2023-04-18T07:13:07.700Z,10.21
2023-04-18T07:15:36.713Z,10.24
2023-04-18T07:18:05.844Z,10.28
2023-04-18T07:20:35.833Z,10.31
2023-04-18T07:23:04.898Z,10.34
2023-04-18T07:25:33.828Z,10.37
2023-04-18T07:28:02.843Z,10.35
2023-04-18T07:30:31.773Z,10.35
2023-04-18T07:33:00.900Z,10.38
2023-04-18T07:35:30.572Z,10.38
2023-04-18T07:37:59.504Z,10.49
2023-04-18T07:40:28.404Z,10.52
2023-04-18T07:42:57.569Z,10.49
2023-04-18T07:45:26.443Z,10.49
2023-04-18T07:47:55.346Z,10.49
2023-04-18T07:50:25.007Z,10.41
2023-04-18T07:52:53.898Z,10.46
2023-04-18T07:55:29.320Z,10.45
2023-04-18T07:57:58.369Z,10.43
2023-04-18T08:00:28.983Z,10.34
2023-04-18T08:02:58.358Z,10.44
2023-04-18T08:05:28.051Z,10.55
2023-04-18T08:07:57.284Z,10.65
2023-04-18T08:10:26.441Z,10.71
2023-04-18T08:12:55.363Z,10.95
2023-04-18T08:15:33.103Z,11.08
2023-04-18T08:18:02.315Z,11.15
2023-04-18T08:20:31.411Z,11.10
2023-04-18T08:23:05.628Z,11.22
2023-04-18T08:25:38.243Z,11.30
2023-04-18T08:28:07.192Z,11.33
2023-04-18T08:30:36.128Z,11.46
2023-04-18T08:33:05.160Z,11.57
2023-04-18T08:35:35.664Z,11.58
2023-04-18T08:38:04.573Z,11.60
2023-04-18T08:40:34.782Z,11.73
2023-04-18T08:43:09.615Z,11.71
2023-04-18T08:45:41.736Z,11.71
2023-04-18T08:48:16.802Z,11.81
2023-04-18T08:50:47.419Z,11.90
2023-04-18T08:53:18.117Z,11.89
2023-04-18T08:55:50.676Z,11.78
2023-04-18T08:58:23.061Z,11.84
2023-04-18T09:00:55.635Z,11.78
2023-04-18T09:03:40.918Z,11.74
2023-04-18T09:06:19.429Z,11.63
2023-04-18T09:09:04.087Z,11.59
2023-04-18T09:11:34.632Z,11.59
2023-04-18T09:14:03.709Z,11.46
2023-04-18T09:16:50.874Z,11.40
2023-04-18T09:19:19.909Z,11.38
2023-04-18T09:22:01.515Z,11.27
2023-04-18T09:24:32.491Z,11.20
2023-04-18T09:27:01.753Z,11.13
2023-04-18T09:29:47.342Z,11.18
2023-04-18T09:32:29.778Z,11.11
2023-04-18T09:35:05.697Z,11.07
2023-04-18T09:37:35.878Z,11.12
2023-04-18T09:40:20.011Z,11.08
2023-04-18T09:42:53.529Z,11.04
2023-04-18T09:45:23.892Z,11.10
2023-04-18T09:47:54.530Z,11.14
2023-04-18T09:50:23.543Z,11.18
2023-04-18T09:52:53.962Z,11.15
2023-04-18T09:55:23.234Z,11.06
2023-04-18T09:57:54.284Z,11.02
2023-04-18T10:00:27.423Z,10.96
2023-04-18T10:03:11.030Z,10.97
2023-04-18T10:05:41.726Z,10.94
2023-04-18T10:08:13.095Z,10.93
2023-04-18T10:10:42.006Z,10.92
2023-04-18T10:13:14.286Z,10.97
2023-04-18T10:15:44.273Z,10.99
2023-04-18T10:18:16.939Z,10.92
2023-04-18T10:20:47.463Z,10.97
2023-04-18T10:23:31.917Z,11.05
2023-04-18T10:26:02.086Z,11.05
2023-04-18T10:28:59.134Z,11.04
2023-04-18T10:31:29.922Z,11.01
2023-04-18T10:34:05.231Z,11.02
2023-04-18T10:36:34.982Z,11.02
2023-04-18T10:39:49.408Z,11.01
2023-04-18T10:42:18.836Z,11.01
2023-04-18T10:45:25.840Z,10.92
2023-04-18T10:48:30.172Z,10.82
2023-04-18T10:51:20.029Z,10.78
2023-04-18T10:53:54.441Z,10.79
2023-04-18T10:56:23.973Z,10.72
2023-04-18T10:58:54.198Z,10.64
2023-04-18T11:01:32.496Z,10.60
2023-04-18T11:04:02.299Z,10.56
2023-04-18T11:06:31.639Z,10.55
2023-04-18T11:09:14.208Z,10.60
2023-04-18T11:11:44.471Z,10.69
2023-04-18T11:14:13.437Z,10.87
2023-04-18T11:16:42.807Z,11.03
2023-04-18T11:19:23.898Z,11.20
2023-04-18T11:21:52.916Z,11.36
2023-04-18T11:24:24.989Z,11.47
2023-04-18T11:26:56.359Z,11.50
2023-04-18T11:29:25.352Z,11.47
2023-04-18T11:31:58.369Z,11.38
2023-04-18T11:34:31.780Z,11.28
2023-04-18T11:37:00.581Z,11.24
2023-04-18T11:39:29.579Z,11.18
2023-04-18T11:41:59.862Z,11.14
2023-04-18T11:44:28.720Z,11.12
2023-04-18T11:46:57.600Z,11.11
2023-04-18T11:49:29.076Z,11.20
2023-04-18T11:52:01.798Z,11.10
2023-04-18T11:54:45.168Z,11.17
2023-04-18T11:57:29.720Z,11.23
2023-04-18T12:00:01.118Z,11.20
2023-04-18T12:02:45.871Z,11.15
2023-04-18T12:05:31.013Z,11.13
2023-04-18T12:08:18.831Z,11.06
2023-04-18T12:10:50.953Z,11.05
2023-04-18T12:13:26.637Z,11.00
2023-04-18T12:15:55.639Z,10.92
2023-04-18T12:18:24.941Z,10.90
2023-04-18T12:20:58.816Z,10.98
2023-04-18T12:23:40.594Z,10.99
2023-04-18T12:26:18.430Z,10.95
2023-04-18T12:28:51.515Z,10.94
2023-04-18T12:31:21.949Z,10.93
2023-04-18T12:33:50.983Z,10.90
2023-04-18T12:36:22.333Z,10.96
2023-04-18T12:38:51.661Z,10.93
2023-04-18T12:41:21.036Z,10.88
2023-04-18T12:43:50.318Z,10.83
2023-04-18T12:46:19.605Z,10.81
2023-04-18T12:48:48.515Z,10.81
2023-04-18T12:51:17.452Z,10.77
2023-04-18T12:53:46.365Z,10.78
2023-04-18T12:56:15.881Z,10.82
2023-04-18T12:58:44.758Z,10.81
2023-04-18T13:01:14.508Z,10.82
2023-04-18T13:03:43.659Z,10.85
2023-04-18T13:06:12.950Z,10.87
2023-04-18T13:08:42.880Z,10.90
2023-04-18T13:11:11.713Z,10.92
2023-04-18T13:13:40.704Z,10.99
2023-04-18T13:16:09.657Z,11.05
2023-04-18T13:18:38.786Z,11.13
2023-04-18T13:21:07.828Z,11.21
2023-04-18T13:23:36.894Z,11.18
2023-04-18T13:26:06.274Z,11.22
2023-04-18T13:28:35.402Z,11.33
2023-04-18T13:31:04.512Z,11.29
2023-04-18T13:33:33.499Z,11.37
2023-04-18T13:36:02.491Z,11.48
2023-04-18T13:38:31.453Z,11.48
2023-04-18T13:41:11.393Z,11.41
2023-04-18T13:44:14.820Z,11.49
2023-04-18T13:46:43.682Z,11.47
2023-04-18T13:49:12.738Z,11.43
2023-04-18T13:51:41.979Z,11.33
2023-04-18T13:54:14.861Z,11.29
2023-04-18T13:56:43.845Z,11.27
2023-04-18T13:59:12.958Z,11.22
2023-04-18T14:01:43.088Z,11.15
2023-04-18T14:04:12.258Z,11.12
2023-04-18T14:06:41.458Z,11.11
2023-04-18T14:09:10.574Z,11.13
2023-04-18T14:11:39.475Z,11.13
2023-04-18T14:14:08.347Z,11.08
2023-04-18T14:16:37.037Z,11.05
2023-04-18T14:19:05.803Z,11.04
2023-04-18T14:21:34.796Z,11.03
2023-04-18T14:24:04.067Z,10.96
2023-04-18T14:26:32.914Z,10.87
2023-04-18T14:29:02.088Z,10.82
2023-04-18T14:31:30.996Z,10.78
2023-04-18T14:33:59.978Z,10.65
2023-04-18T14:36:30.034Z,10.61
2023-04-18T14:38:59.543Z,10.44
2023-04-18T14:41:28.368Z,10.42
2023-04-18T14:44:25.436Z,10.32
2023-04-18T14:46:54.474Z,10.19
2023-04-18T14:49:23.119Z,10.10
2023-04-18T14:51:51.929Z,10.06
2023-04-18T14:54:20.731Z,10.02
2023-04-18T14:56:49.584Z,9.97
2023-04-18T14:59:18.749Z,9.91
2023-04-18T15:01:48.044Z,9.83
2023-04-18T15:04:17.151Z,9.79
2023-04-18T15:06:46.083Z,9.74
2023-04-18T15:09:16.251Z,9.71
2023-04-18T15:11:45.004Z,9.70
2023-04-18T15:14:14.273Z,9.68
2023-04-18T15:16:43.357Z,9.67
2023-04-18T15:19:12.156Z,9.66
2023-04-18T15:21:43.496Z,9.65
2023-04-18T15:24:12.726Z,9.65
2023-04-18T15:26:42.565Z,9.65
2023-04-18T15:29:11.582Z,9.66
2023-04-18T15:31:40.342Z,9.66
2023-04-18T15:34:09.305Z,9.62
2023-04-18T15:36:38.561Z,9.59
2023-04-18T15:39:09.272Z,9.57
2023-04-18T15:41:38.175Z,9.57
2023-04-18T15:44:18.744Z,9.57
2023-04-18T15:46:53.531Z,9.59
2023-04-18T15:49:26.958Z,9.60
2023-04-18T15:52:14.947Z,9.60
2023-04-18T15:54:51.127Z,9.61
2023-04-18T15:57:30.509Z,9.60
2023-04-18T16:00:21.873Z,9.58
2023-04-18T16:02:51.281Z,9.63
2023-04-18T16:05:20.309Z,9.63
2023-04-18T16:07:55.100Z,9.63
2023-04-18T16:10:26.812Z,9.65
2023-04-18T16:12:56.748Z,9.65
2023-04-18T16:15:31.514Z,9.64
2023-04-18T16:18:00.821Z,9.62
2023-04-18T16:20:29.706Z,9.60
2023-04-18T16:37:09.991Z,10.00
2023-04-18T16:39:42.638Z,10.03
2023-04-18T16:42:18.340Z,9.98
2023-04-18T16:44:50.825Z,9.97
2023-04-18T16:47:20.526Z,9.93
2023-04-18T16:49:52.469Z,9.90
2023-04-18T16:52:23.432Z,9.89
2023-04-18T16:54:55.552Z,9.84
2023-04-18T16:57:27.089Z,9.81
2023-04-18T17:00:08.580Z,9.77
2023-04-18T17:02:43.360Z,9.68
2023-04-18T17:05:13.897Z,9.70
2023-04-18T17:07:47.691Z,9.69
2023-04-18T17:10:22.585Z,9.69
2023-04-18T17:12:52.262Z,9.70
2023-04-18T17:15:24.263Z,9.68
2023-04-18T17:17:56.533Z,9.63
2023-04-18T17:20:25.312Z,9.63
2023-04-18T17:22:55.394Z,9.60
2023-04-18T17:25:26.465Z,9.59
2023-04-18T17:27:57.075Z,9.59
2023-04-18T17:30:30.208Z,9.55
2023-04-18T17:33:00.509Z,9.50
2023-04-18T17:35:30.320Z,9.49
2023-04-18T17:38:00.002Z,9.47
2023-04-18T17:40:30.584Z,9.47
2023-04-18T17:43:02.601Z,9.51
2023-04-18T17:45:32.858Z,9.51
2023-04-18T17:48:21.236Z,9.48
2023-04-18T17:50:53.545Z,9.42
2023-04-18T17:53:23.551Z,9.37
2023-04-18T17:55:55.668Z,9.36
2023-04-18T17:58:25.320Z,9.37
2023-04-18T18:00:54.802Z,9.38
2023-04-18T18:03:24.053Z,9.36
2023-04-18T18:05:59.317Z,9.36
2023-04-18T18:08:29.925Z,9.37
2023-04-18T18:11:00.234Z,9.35
2023-04-18T18:13:29.859Z,9.31
2023-04-18T18:15:59.642Z,9.34
2023-04-18T18:18:32.464Z,9.34
2023-04-18T18:21:04.318Z,9.33
2023-04-18T18:23:36.202Z,9.36
2023-04-18T18:26:06.908Z,9.31
2023-04-18T18:28:37.212Z,9.31
2023-04-18T18:31:06.305Z,9.31
2023-04-18T18:33:35.262Z,9.33
2023-04-18T18:36:05.479Z,9.32
2023-04-18T18:38:34.704Z,9.28
2023-04-18T18:41:06.616Z,9.29
2023-04-18T18:43:36.439Z,9.26
2023-04-18T18:46:05.906Z,9.26
2023-04-18T18:48:38.482Z,9.25
2023-04-18T18:51:09.997Z,9.26
2023-04-18T18:53:40.497Z,9.27
2023-04-18T18:56:16.367Z,9.32
2023-04-18T18:58:47.254Z,9.27
2023-04-18T19:01:21.078Z,9.32
2023-04-18T19:03:53.389Z,9.35
2023-04-18T19:06:25.127Z,9.34
2023-04-18T19:08:57.623Z,9.37
2023-04-18T19:11:28.358Z,9.43
2023-04-18T19:13:59.717Z,9.39
2023-04-18T19:16:39.408Z,9.40
2023-04-18T19:19:08.653Z,9.39
2023-04-18T19:21:40.340Z,9.34
2023-04-18T19:24:12.620Z,9.31
2023-04-18T19:26:42.600Z,9.31
2023-04-18T19:29:17.215Z,9.31
2023-04-18T19:31:51.057Z,9.32
2023-04-18T19:34:24.665Z,9.33
2023-04-18T19:36:56.480Z,9.33
2023-04-18T19:39:25.940Z,9.29
2023-04-18T19:41:55.340Z,9.21
2023-04-18T19:44:30.876Z,9.25
2023-04-18T19:47:00.043Z,9.30
2023-04-18T19:49:29.293Z,9.31
2023-04-18T19:51:58.576Z,9.25
2023-04-18T19:54:29.677Z,9.27
2023-04-18T19:57:02.553Z,9.26
2023-04-18T19:59:35.314Z,9.29
2023-04-18T20:02:06.833Z,9.28
2023-04-18T20:04:36.918Z,9.24
2023-04-18T20:07:06.160Z,9.24
2023-04-18T20:09:35.147Z,9.24
2023-04-18T20:12:03.915Z,9.25
2023-04-18T20:14:32.858Z,9.27
2023-04-18T20:17:01.609Z,9.18
2023-04-18T20:19:30.294Z,9.20
2023-04-18T20:21:59.183Z,9.21
2023-04-18T20:24:28.378Z,9.18
2023-04-18T20:26:59.897Z,9.24
2023-04-18T20:29:28.742Z,9.18
2023-04-18T20:31:57.429Z,9.14
2023-04-18T20:34:26.206Z,9.12
2023-04-18T20:36:56.204Z,9.16
2023-04-18T20:39:25.292Z,9.17
2023-04-18T20:41:57.916Z,9.18
2023-04-18T20:44:26.503Z,9.18
2023-04-18T20:46:55.226Z,9.12
2023-04-18T20:49:23.882Z,9.16
2023-04-18T20:53:55.172Z,9.14
2023-04-18T20:56:23.944Z,9.16
2023-04-18T20:58:52.841Z,9.17
2023-04-18T21:01:22.852Z,9.16
2023-04-18T21:03:51.883Z,9.15
2023-04-18T21:06:22.186Z,9.15
2023-04-18T21:08:51.216Z,9.19
2023-04-18T21:11:20.080Z,9.22
2023-04-18T21:13:48.743Z,9.22
2023-04-18T21:16:17.701Z,9.21
2023-04-18T21:18:46.648Z,9.21
2023-04-18T21:24:51.308Z,9.27
2023-04-18T21:27:20.120Z,9.24
2023-04-18T21:29:49.007Z,9.27
2023-04-18T21:32:17.776Z,9.24
2023-04-18T21:34:46.611Z,9.26
2023-04-18T21:37:15.316Z,9.22
2023-04-18T21:39:44.108Z,9.23
2023-04-18T21:42:12.931Z,9.20
2023-04-18T21:44:41.574Z,9.22
2023-04-18T21:47:10.370Z,9.21
2023-04-18T21:49:39.132Z,9.22
2023-04-18T21:52:08.458Z,9.24
2023-04-18T21:54:37.260Z,9.20
2023-04-18T21:57:07.003Z,9.25
2023-04-18T21:59:35.840Z,9.25
2023-04-18T22:02:05.478Z,9.19
2023-04-18T22:04:34.744Z,9.21
2023-04-18T22:07:03.738Z,9.17
2023-04-18T22:09:36.520Z,9.08
2023-04-18T22:12:05.825Z,9.10
2023-04-18T22:14:35.422Z,9.13
2023-04-18T22:17:05.001Z,9.18
2023-04-18T22:19:35.810Z,9.16
2023-04-18T22:22:04.555Z,9.17
2023-04-18T22:24:33.261Z,9.17
2023-04-18T22:27:02.996Z,9.16
2023-04-18T22:29:31.834Z,9.15
2023-04-18T22:32:00.627Z,9.15
2023-04-18T22:34:29.328Z,9.13
2023-04-18T22:36:58.156Z,9.15
2023-04-18T22:39:26.901Z,9.18
2023-04-18T22:41:55.586Z,9.19
2023-04-18T22:44:24.404Z,9.15
2023-04-18T22:46:54.892Z,9.12
2023-04-18T22:49:23.712Z,9.11
2023-04-18T22:51:54.675Z,9.12
2023-04-18T22:54:23.297Z,9.11
2023-04-18T22:56:51.999Z,9.03
2023-04-18T22:59:20.766Z,9.03
2023-04-18T23:01:49.566Z,9.00
2023-04-18T23:04:18.749Z,8.97
2023-04-18T23:06:47.859Z,8.98
2023-04-18T23:09:19.818Z,8.96
2023-04-18T23:11:48.557Z,8.96
2023-04-18T23:14:17.576Z,8.96
2023-04-18T23:16:46.396Z,8.93
2023-04-18T23:19:15.497Z,8.88
2023-04-18T23:21:44.360Z,8.90
2023-04-18T23:24:13.327Z,8.89
2023-04-18T23:26:42.294Z,8.86
2023-04-18T23:29:10.985Z,8.85
2023-04-18T23:31:39.868Z,8.84
2023-04-18T23:34:09.498Z,8.90
2023-04-18T23:36:38.267Z,8.86
2023-04-18T23:39:08.791Z,8.84
2023-04-18T23:41:37.451Z,8.83
2023-04-18T23:44:06.274Z,8.82
2023-04-18T23:46:36.502Z,8.83
2023-04-18T23:49:05.665Z,8.84
2023-04-18T23:51:34.500Z,8.86
2023-04-18T23:54:03.222Z,8.86
2023-04-18T23:56:32.002Z,8.87
2023-04-18T23:59:00.726Z,8.88
